Terminal Aerodrome Forecast
Issued by NWS

Current Version | Previous Version | Graphics & Text | Print | Product List | Glossary On
Versions: 1 2 3 4 5 6 7 8 9 10 11 12 13 14 15 16 17 18 19 20 21 22 23 24 25 26 27 28 29 30 31 32 33 34 35 36
000
FTUS41 KRNK 132329
TAFLWB
TAF
KLWB 132329Z 1400/1424 VRB03KT P6SM SCT030
     FM140600 00000KT 4SM BR SCT003
      TEMPO 1408/1411 1SM BR OVC001
     FM141300 04004KT P6SM SCT035
     FM141700 12006KT P6SM BKN050=

USA.gov is the U.S. government's official web portal to all federal, state and local government web resources and services.